Impacts TAF Board INFO
FOR SITUATIONAL AWARENESS. NOT TO BE USED FOR FLIGHT PLANNING PURPOSES.
IDs:

KDFW - Dallas-Ft Worth Intl, TX, US

Issued at 2338 UTC 19 Feb 2018
Updated at 0143 UTC 20 Feb 2018
Potential Impact None Slight Moderate High
Time0053Z 20/02Z 20/03Z 20/04Z 20/05Z 20/06Z 20/07Z 20/08Z 20/09Z 20/10Z 20/11Z 20/12Z 20/13Z 20/14Z>>
Type OBS PRVL PRVL PRVL PRVL PRVL PRVL PRVL PRVL
  [TEMP]  
PRVL
  [TEMP]  
PRVL
  [TEMP]  
PRVL
  [TEMP]  
PRVL PRVL
VIS 10 >6 >6 >6 >6 >6 >6 >6 >6
  [4]  
>6
  [4]  
>6
  [4]  
>6
  [4]  
>6 >6
CIG 70 50 25 25 25 18 18 15 15
  [20]  
15
  [20]  
15
  [20]  
15
  [20]  
15 20
Cover OVC OVC OVC OVC OVC OVC OVC OVC OVC
  [OVC]  
OVC
  [OVC]  
OVC
  [OVC]  
OVC
  [OVC]  
OVC OVC
FltCat VFR VFR MVFR MVFR MVFR MVFR MVFR MVFR MVFR
  [MVFR]  
MVFR
  [MVFR]  
MVFR
  [MVFR]  
MVFR
  [MVFR]  
MVFR MVFR
WX -- VCSH -- -- -- VCSH VCSH VCTS VCTS
  [TSRA]  
VCTS
  [TSRA]  
VCTS
  [TSRA]  
VCTS
  [TSRA]  
VCTS VCSH
WDir 170 170 170 170 170 170 170 180 180
[180]
180
[180]
180
[180]
180
[180]
180 180
WSpd 18 13 17 17 17 15 15 14 14
  [14]  
14
  [14]  
14
  [14]  
14
  [14]  
14 16
WGst 25 23 -- -- -- 25 25 24 24
  [24]  
24
  [24]  
24
  [24]  
24
  [24]  
24 --

Raw TAF
KDFW 192338Z 2000/2106 17013G23KT P6SM VCSH SCT040 OVC050
  FM200300 17017KT P6SM OVC025
  FM200600 17015G25KT P6SM VCSH OVC018
  FM200800 18014G24KT P6SM VCTS OVC015CB
  TEMPO 2009/2013 4SM TSRA BKN020 OVC050CB
  FM201400 18016KT P6SM VCSH OVC020
  FM201700 17015G25KT 6SM SHRA VCTS OVC025CB


Raw METAR
KDFW 200053Z 17018G25KT 10SM FEW050 FEW065 OVC070 24/18 A2978 RMK AO2 PK WND 16031/0019 SLP075 T02440183
KDFW 192353Z 17015G25KT 10SM SCT065 BKN200 OVC240 26/17 A2977 RMK AO2 PK WND 17027/2342 SLP073 T02610172 10261 20250 55001
KDFW 192253Z 17017KT 10SM FEW048 OVC065 26/16 A2976 RMK AO2 SLP070 T02610161

METAR Board
Radar Display
Forecast Discussion

FOR SITUATIONAL AWARENESS. NOT TO BE USED FOR FLIGHT PLANNING PURPOSES.